createdAt,value
2018-11-06T00:01:45.482Z,50.50
2018-11-06T00:04:14.856Z,50.60
2018-11-06T00:06:43.882Z,50.50
2018-11-06T00:09:13.323Z,49.80
2018-11-06T00:11:42.377Z,49.20
2018-11-06T00:14:11.988Z,49.20
2018-11-06T00:16:41.163Z,49.20
2018-11-06T00:19:10.658Z,49.30
2018-11-06T00:21:39.825Z,49.40
2018-11-06T00:24:11.133Z,49.50
2018-11-06T00:26:40.755Z,49.30
2018-11-06T00:29:10.095Z,49.40
2018-11-06T00:31:39.529Z,49.30
2018-11-06T00:34:09.743Z,49.70
2018-11-06T00:36:39.477Z,49.40
2018-11-06T00:39:11.183Z,49.70
2018-11-06T00:41:40.639Z,49.20
2018-11-06T00:44:10.168Z,49.70
2018-11-06T00:46:40.061Z,50.20
2018-11-06T00:49:09.665Z,50.60
2018-11-06T00:51:40.604Z,51.00
2018-11-06T00:54:10.419Z,50.20
2018-11-06T00:56:40.228Z,49.80
2018-11-06T00:59:10.466Z,49.40
2018-11-06T01:01:40.777Z,49.90
2018-11-06T01:04:13.518Z,50.10
2018-11-06T01:06:42.413Z,50.60
2018-11-06T01:09:13.077Z,50.40
2018-11-06T01:11:42.900Z,50.70
2018-11-06T01:14:11.703Z,51.00
2018-11-06T01:16:41.303Z,51.50
2018-11-06T01:19:10.693Z,52.00
2018-11-06T01:21:40.297Z,52.00
2018-11-06T01:24:10.418Z,51.60
2018-11-06T01:26:42.601Z,51.40
2018-11-06T01:29:13.393Z,50.70
2018-11-06T01:31:45.504Z,51.30
2018-11-06T01:34:16.007Z,51.70
2018-11-06T01:36:46.238Z,52.00
2018-11-06T01:39:16.426Z,51.80
2018-11-06T01:41:47.161Z,51.90
2018-11-06T01:44:17.398Z,51.90
2018-11-06T01:46:47.717Z,52.00
2018-11-06T01:49:16.800Z,52.30
2018-11-06T01:51:46.012Z,52.50
2018-11-06T01:54:15.090Z,53.50
2018-11-06T01:56:44.837Z,53.90
2018-11-06T01:59:14.342Z,54.20
2018-11-06T02:01:43.913Z,54.80
2018-11-06T02:04:13.761Z,56.00
2018-11-06T02:06:43.677Z,55.10
2018-11-06T02:09:13.693Z,55.10
2018-11-06T02:11:44.222Z,55.30
2018-11-06T02:14:13.932Z,53.90
2018-11-06T02:16:43.949Z,53.90
2018-11-06T02:19:13.967Z,54.20
2018-11-06T02:21:43.676Z,54.20
2018-11-06T02:24:13.488Z,53.90
2018-11-06T02:26:43.300Z,53.60
2018-11-06T02:29:13.420Z,53.60
2018-11-06T02:31:42.926Z,53.20
2018-11-06T02:34:13.865Z,53.20
2018-11-06T02:36:43.690Z,53.80
2018-11-06T02:39:13.239Z,54.20
2018-11-06T02:41:42.978Z,54.60
2018-11-06T02:44:12.601Z,54.00
2018-11-06T02:46:42.208Z,54.50
2018-11-06T02:49:12.999Z,54.20
2018-11-06T02:51:42.550Z,54.20
2018-11-06T02:54:12.125Z,54.90
2018-11-06T02:56:41.729Z,56.70
2018-11-06T02:59:11.567Z,57.20
2018-11-06T03:01:41.184Z,57.40
2018-11-06T03:04:10.597Z,57.90
2018-11-06T03:06:39.664Z,58.00
2018-11-06T03:09:09.059Z,58.30
2018-11-06T03:11:38.436Z,58.40
2018-11-06T03:14:08.170Z,59.20
2018-11-06T03:16:37.444Z,59.70
2018-11-06T03:19:06.825Z,62.80
2018-11-06T03:21:35.842Z,62.00
2018-11-06T03:24:05.729Z,63.40
2018-11-06T03:26:35.703Z,63.00
2018-11-06T03:29:05.320Z,63.30
2018-11-06T03:31:35.148Z,63.80
2018-11-06T03:34:06.701Z,62.60
2018-11-06T03:36:36.489Z,63.60
2018-11-06T03:39:08.266Z,63.40
2018-11-06T03:41:39.003Z,64.30
2018-11-06T03:44:09.222Z,64.90
2018-11-06T03:46:39.239Z,66.40
2018-11-06T03:49:09.563Z,66.90
2018-11-06T03:51:41.850Z,67.40
2018-11-06T03:54:10.724Z,65.90
2018-11-06T03:56:40.844Z,65.00
2018-11-06T03:59:13.011Z,64.80
2018-11-06T04:01:42.721Z,62.90
2018-11-06T04:04:13.148Z,62.30
2018-11-06T04:06:44.495Z,62.00
2018-11-06T04:09:14.907Z,62.10
2018-11-06T04:11:44.632Z,62.80
2018-11-06T04:14:14.657Z,61.70
2018-11-06T04:16:45.383Z,62.90
2018-11-06T04:19:19.438Z,64.00
2018-11-06T04:21:49.718Z,65.00
2018-11-06T04:24:20.247Z,66.00
2018-11-06T04:26:49.515Z,68.00
2018-11-06T04:29:22.431Z,68.30
2018-11-06T04:31:51.596Z,68.30
2018-11-06T04:34:20.906Z,69.00
2018-11-06T04:36:50.404Z,67.90
2018-11-06T04:39:20.301Z,68.60
2018-11-06T04:41:49.879Z,68.60
2018-11-06T04:44:19.155Z,70.70
2018-11-06T04:46:48.513Z,70.80
2018-11-06T04:49:18.576Z,74.70
2018-11-06T04:51:48.183Z,74.40
2018-11-06T04:54:18.506Z,76.70
2018-11-06T04:56:48.551Z,77.50
2018-11-06T04:59:18.541Z,77.30
2018-11-06T05:01:48.764Z,78.40
2018-11-06T05:04:19.394Z,77.10
2018-11-06T05:06:50.068Z,77.40
2018-11-06T05:09:19.909Z,79.00
2018-11-06T05:12:02.656Z,80.80
2018-11-06T05:14:47.958Z,82.20
2018-11-06T05:17:18.564Z,83.30
2018-11-06T05:19:48.990Z,82.70
2018-11-06T05:22:19.863Z,83.80
2018-11-06T05:24:49.742Z,87.20
2018-11-06T05:27:19.276Z,88.80
2018-11-06T05:29:50.081Z,89.90
2018-11-06T05:32:20.097Z,90.90
2018-11-06T05:34:50.119Z,91.20
2018-11-06T05:37:18.801Z,90.90
2018-11-06T05:39:59.649Z,91.70
2018-11-06T05:42:30.972Z,93.10
2018-11-06T05:44:59.526Z,92.70
2018-11-06T05:50:10.799Z,93.30
2018-11-06T05:52:40.715Z,94.00
2018-11-06T05:55:16.570Z,93.90
2018-11-06T05:57:48.736Z,94.20
2018-11-06T06:00:20.712Z,94.60
2018-11-06T06:02:52.251Z,95.60
2018-11-06T06:05:25.443Z,95.20
2018-11-06T06:07:55.034Z,95.10
2018-11-06T06:10:25.330Z,95.30
2018-11-06T06:12:55.903Z,95.70
2018-11-06T06:15:40.462Z,96.40
2018-11-06T06:18:10.734Z,97.90
2018-11-06T06:20:44.710Z,98.50
2018-11-06T06:23:14.712Z,98.50
2018-11-06T06:25:45.956Z,98.50
2018-11-06T06:28:16.798Z,98.20
2018-11-06T06:30:48.860Z,99.00
2018-11-06T06:33:20.003Z,98.70
2018-11-06T06:35:52.069Z,98.20
2018-11-06T06:38:22.903Z,98.90
2018-11-06T06:40:54.379Z,98.90
2018-11-06T06:43:25.395Z,99.20
2018-11-06T06:45:55.411Z,99.80
2018-11-06T06:48:27.477Z,99.90
2018-11-06T06:54:31.798Z,99.90
2018-11-06T06:57:03.168Z,99.90
2018-11-06T06:59:32.671Z,99.70
2018-11-06T07:02:02.506Z,99.90
2018-11-06T07:04:33.001Z,99.70
2018-11-06T07:07:02.826Z,99.90
2018-11-06T07:09:35.268Z,99.90
2018-11-06T07:12:17.932Z,99.90
2018-11-06T07:14:48.032Z,98.80
2018-11-06T07:17:20.840Z,98.20
2018-11-06T07:19:51.924Z,97.40
2018-11-06T07:22:21.437Z,96.00
2018-11-06T07:24:50.573Z,95.50
2018-11-06T07:27:20.370Z,94.10
2018-11-06T07:29:49.457Z,92.90
2018-11-06T07:32:18.553Z,92.80
2018-11-06T07:34:47.574Z,88.90
2018-11-06T07:37:16.780Z,90.40
2018-11-06T07:39:45.512Z,90.00
2018-11-06T07:42:14.736Z,87.10
2018-11-06T07:44:43.619Z,82.20
2018-11-06T07:47:12.714Z,79.10
2018-11-06T07:49:41.499Z,71.50
2018-11-06T07:52:10.392Z,71.80
2018-11-06T07:54:39.777Z,71.60
2018-11-06T07:57:08.595Z,66.40
2018-11-06T07:59:37.676Z,64.10
2018-11-06T08:02:07.359Z,60.00
2018-11-06T08:04:36.252Z,58.90
2018-11-06T08:07:05.591Z,57.20
2018-11-06T08:09:34.456Z,57.90
2018-11-06T08:12:03.426Z,56.30
2018-11-06T08:14:32.836Z,56.90
2018-11-06T08:17:01.644Z,56.50
2018-11-06T08:19:30.488Z,56.20
2018-11-06T08:21:59.143Z,58.50
2018-11-06T08:24:27.979Z,55.70
2018-11-06T08:26:56.861Z,59.30
2018-11-06T08:29:25.504Z,55.50
2018-11-06T08:31:54.762Z,54.90
2018-11-06T08:34:23.167Z,54.70
2018-11-06T08:36:52.093Z,53.80
2018-11-06T08:39:20.687Z,53.10
2018-11-06T08:41:49.325Z,55.20
2018-11-06T08:44:17.841Z,51.20
2018-11-06T08:46:47.327Z,50.80
2018-11-06T08:49:15.847Z,51.60
2018-11-06T08:51:44.402Z,53.20
2018-11-06T08:54:13.280Z,52.70
2018-11-06T08:56:41.860Z,52.80
2018-11-06T08:59:10.486Z,52.70
2018-11-06T09:01:39.230Z,54.00
2018-11-06T09:04:08.351Z,53.80
2018-11-06T09:06:37.234Z,54.00
2018-11-06T09:09:08.102Z,56.20
2018-11-06T09:11:36.682Z,56.40
2018-11-06T09:14:05.269Z,55.50
2018-11-06T09:16:33.933Z,56.20
2018-11-06T09:19:02.597Z,57.00
2018-11-06T09:21:31.202Z,58.10
2018-11-06T09:23:59.945Z,58.60
2018-11-06T09:26:28.500Z,58.50
2018-11-06T09:28:57.413Z,59.40
2018-11-06T09:31:28.498Z,59.40
2018-11-06T09:33:59.002Z,59.40
2018-11-06T09:36:28.495Z,59.50
2018-11-06T09:38:57.100Z,62.00
2018-11-06T09:41:26.572Z,63.10
2018-11-06T09:43:55.237Z,63.00
2018-11-06T09:46:24.278Z,62.80
2018-11-06T09:48:52.859Z,64.80
2018-11-06T09:51:21.424Z,64.80
2018-11-06T09:53:49.981Z,61.70
2018-11-06T09:56:18.646Z,63.20
2018-11-06T09:58:47.199Z,59.90
2018-11-06T10:01:16.385Z,59.00
2018-11-06T10:03:45.021Z,60.00
2018-11-06T10:06:13.589Z,60.40
2018-11-06T10:08:42.137Z,63.40
2018-11-06T10:11:10.881Z,63.70
2018-11-06T10:13:39.541Z,64.10
2018-11-06T10:16:08.217Z,63.40
2018-11-06T10:18:36.767Z,62.80
2018-11-06T10:21:05.599Z,61.40
2018-11-06T10:23:34.113Z,58.50
2018-11-06T10:26:02.753Z,57.90
2018-11-06T10:28:32.452Z,56.30
2018-11-06T10:31:01.058Z,56.50
2018-11-06T10:33:29.631Z,55.40
2018-11-06T10:35:58.221Z,56.10
2018-11-06T10:38:26.764Z,54.90
2018-11-06T10:40:55.272Z,49.30
2018-11-06T10:43:23.862Z,50.30
2018-11-06T10:45:52.419Z,48.20
2018-11-06T10:48:21.011Z,46.70
2018-11-06T10:50:49.524Z,45.50
2018-11-06T10:53:18.882Z,44.70
2018-11-06T10:55:47.439Z,43.10
2018-11-06T10:58:16.037Z,41.50
2018-11-06T11:00:49.898Z,40.30
2018-11-06T11:03:23.881Z,40.00
2018-11-06T11:05:53.218Z,38.70
2018-11-06T11:08:22.051Z,38.50
2018-11-06T11:10:50.610Z,39.70
2018-11-06T11:13:19.397Z,38.40
2018-11-06T11:15:47.849Z,37.40
2018-11-06T11:18:16.423Z,38.60
2018-11-06T11:20:44.958Z,38.60
2018-11-06T11:23:13.566Z,38.50
2018-11-06T11:25:43.179Z,36.90
2018-11-06T11:28:11.883Z,38.20
2018-11-06T11:30:40.421Z,36.40
2018-11-06T11:33:08.976Z,34.40
2018-11-06T11:35:38.253Z,37.60
2018-11-06T11:38:06.909Z,35.00
2018-11-06T11:40:35.526Z,36.40
2018-11-06T11:43:04.922Z,36.20
2018-11-06T11:45:33.562Z,35.10
2018-11-06T11:48:02.058Z,35.20
2018-11-06T11:50:30.566Z,33.40
2018-11-06T11:52:59.765Z,34.40
2018-11-06T11:55:28.309Z,32.90
2018-11-06T11:57:56.853Z,34.10
2018-11-06T12:00:28.278Z,33.80
2018-11-06T12:02:57.366Z,31.60
2018-11-06T12:05:25.873Z,33.30
2018-11-06T12:07:54.433Z,32.40
2018-11-06T12:10:23.628Z,32.40
2018-11-06T12:12:52.778Z,33.00
2018-11-06T12:15:23.197Z,32.60
2018-11-06T12:17:52.353Z,34.80
2018-11-06T12:20:20.875Z,32.00
2018-11-06T12:22:49.529Z,32.20
2018-11-06T12:25:18.138Z,31.70
2018-11-06T12:27:47.631Z,31.30
2018-11-06T12:30:17.007Z,31.30
2018-11-06T12:32:45.705Z,31.40
2018-11-06T12:35:14.811Z,30.00
2018-11-06T12:37:43.489Z,31.00
2018-11-06T12:40:14.001Z,30.40
2018-11-06T12:42:43.412Z,30.10
2018-11-06T12:45:14.855Z,30.50
2018-11-06T12:47:44.077Z,30.40
2018-11-06T12:50:13.379Z,30.30
2018-11-06T12:52:42.253Z,31.70
2018-11-06T12:55:12.804Z,31.10
2018-11-06T12:57:41.457Z,29.10
2018-11-06T13:00:12.996Z,30.40
2018-11-06T13:02:42.124Z,31.60
2018-11-06T13:05:10.921Z,31.50
2018-11-06T13:07:40.976Z,32.10
2018-11-06T13:10:10.499Z,32.10
2018-11-06T13:12:39.692Z,32.40
2018-11-06T13:15:08.861Z,33.60
2018-11-06T13:17:37.684Z,34.40
2018-11-06T13:20:08.928Z,35.00
2018-11-06T13:22:39.428Z,34.20
2018-11-06T13:25:08.446Z,35.70
2018-11-06T13:27:38.164Z,35.60
2018-11-06T13:30:09.250Z,34.60
2018-11-06T13:32:39.501Z,36.00
2018-11-06T13:35:08.587Z,34.40
2018-11-06T13:37:37.233Z,36.00
2018-11-06T13:40:08.110Z,35.30
2018-11-06T13:42:37.154Z,36.50
2018-11-06T13:45:07.845Z,36.50
2018-11-06T13:47:36.981Z,36.00
2018-11-06T13:50:06.074Z,36.40
2018-11-06T13:52:35.564Z,37.20
2018-11-06T13:55:04.101Z,37.30
2018-11-06T13:57:32.663Z,37.40
2018-11-06T14:00:01.399Z,37.50
2018-11-06T14:02:30.340Z,38.00
2018-11-06T14:04:58.906Z,39.20
2018-11-06T14:07:28.518Z,39.90
2018-11-06T14:09:57.338Z,40.30
2018-11-06T14:12:26.123Z,40.50
2018-11-06T14:14:55.687Z,40.40
2018-11-06T14:17:25.043Z,40.60
2018-11-06T14:19:53.838Z,41.30
2018-11-06T14:22:25.753Z,41.80
2018-11-06T14:24:54.419Z,41.90
2018-11-06T14:27:23.235Z,41.80
2018-11-06T14:29:55.317Z,42.20
2018-11-06T14:32:24.193Z,42.70
2018-11-06T14:34:53.485Z,43.00
2018-11-06T14:37:22.526Z,43.20
2018-11-06T14:39:51.978Z,43.50
2018-11-06T14:42:21.429Z,44.00
2018-11-06T14:44:50.172Z,44.00
2018-11-06T14:47:18.889Z,44.40
2018-11-06T14:49:48.002Z,44.90
2018-11-06T14:52:16.867Z,45.00
2018-11-06T14:54:45.467Z,45.20
2018-11-06T14:57:15.732Z,45.50
2018-11-06T14:59:46.344Z,45.60
2018-11-06T15:02:15.274Z,45.90
2018-11-06T15:04:44.633Z,47.30
2018-11-06T15:07:16.944Z,46.90
2018-11-06T15:09:55.992Z,47.90
2018-11-06T15:12:26.398Z,47.60
2018-11-06T15:14:57.055Z,47.50
2018-11-06T15:17:28.272Z,47.50
2018-11-06T15:19:59.142Z,47.50
2018-11-06T15:22:30.214Z,48.10
2018-11-06T15:25:01.939Z,48.20
2018-11-06T15:27:32.946Z,48.60
2018-11-06T15:30:03.034Z,49.70
2018-11-06T15:32:32.034Z,48.90
2018-11-06T15:35:02.435Z,49.10
2018-11-06T15:37:31.905Z,50.40
2018-11-06T15:40:00.605Z,51.70
2018-11-06T15:42:29.901Z,51.60
2018-11-06T15:44:59.470Z,52.20
2018-11-06T15:47:30.036Z,52.80
2018-11-06T15:49:59.681Z,53.30
2018-11-06T15:52:28.361Z,53.10
2018-11-06T15:54:56.924Z,53.20
2018-11-06T15:57:25.562Z,53.10
2018-11-06T15:59:54.141Z,52.10
2018-11-06T16:02:22.807Z,52.30
2018-11-06T16:04:51.357Z,52.00
2018-11-06T16:07:19.901Z,51.80
2018-11-06T16:09:48.514Z,52.60
2018-11-06T16:12:17.071Z,52.70
2018-11-06T16:14:45.617Z,53.90
2018-11-06T16:17:14.245Z,53.40
2018-11-06T16:19:42.774Z,52.90
2018-11-06T16:22:11.320Z,53.10
2018-11-06T16:24:39.909Z,53.40
2018-11-06T16:27:08.516Z,53.50
2018-11-06T16:29:37.179Z,53.80
2018-11-06T16:32:05.930Z,55.00
2018-11-06T16:34:34.549Z,55.10
2018-11-06T16:37:03.698Z,55.20
2018-11-06T16:39:32.819Z,56.00
2018-11-06T16:42:01.708Z,56.30
2018-11-06T16:44:34.115Z,55.60
2018-11-06T16:47:11.565Z,57.10
2018-11-06T16:49:41.603Z,56.50
2018-11-06T16:52:10.266Z,56.00
2018-11-06T16:54:39.845Z,57.20
2018-11-06T17:03:02.494Z,58.60
2018-11-06T17:05:53.902Z,59.20
2018-11-06T17:08:42.175Z,59.70
2018-11-06T17:11:12.390Z,60.70
2018-11-06T17:13:42.293Z,60.90
2018-11-06T17:16:11.804Z,61.10
2018-11-06T17:18:40.623Z,62.10
2018-11-06T17:21:09.519Z,62.70
2018-11-06T17:23:54.355Z,62.70
2018-11-06T17:26:46.054Z,63.50
2018-11-06T17:29:15.988Z,64.60
2018-11-06T17:31:45.125Z,65.50
2018-11-06T17:34:15.914Z,66.20
2018-11-06T17:36:45.534Z,66.70
2018-11-06T17:39:15.206Z,67.10
2018-11-06T17:41:44.322Z,67.50
2018-11-06T17:44:14.137Z,66.90
2018-11-06T17:46:43.488Z,67.00
2018-11-06T17:49:12.264Z,67.60
2018-11-06T17:51:42.222Z,68.70
2018-11-06T17:57:05.225Z,69.60
2018-11-06T17:59:41.702Z,70.70
2018-11-06T18:02:15.503Z,72.00
2018-11-06T18:04:47.209Z,72.30
2018-11-06T18:07:17.547Z,72.50
2018-11-06T18:09:46.565Z,72.80
2018-11-06T18:12:15.629Z,73.20
2018-11-06T18:14:44.650Z,73.70
2018-11-06T18:17:14.883Z,76.40
2018-11-06T18:19:44.026Z,77.70
2018-11-06T18:22:13.385Z,77.70
2018-11-06T18:24:44.324Z,78.90
2018-11-06T18:27:21.571Z,79.60
2018-11-06T18:29:52.948Z,80.90
2018-11-06T18:32:26.672Z,80.80
2018-11-06T18:34:58.391Z,82.10
2018-11-06T18:37:27.504Z,82.80
2018-11-06T18:39:57.007Z,83.60
2018-11-06T18:42:31.909Z,84.10
2018-11-06T18:50:19.926Z,86.30
2018-11-06T18:52:50.589Z,86.10
2018-11-06T18:55:20.431Z,90.10
2018-11-06T18:57:49.978Z,90.30
2018-11-06T19:00:24.363Z,90.60
2018-11-06T19:02:55.184Z,91.10
2018-11-06T19:05:25.401Z,91.80
2018-11-06T19:13:31.846Z,93.60
2018-11-06T19:16:02.569Z,94.20
2018-11-06T19:18:53.998Z,94.90
2018-11-06T19:26:28.318Z,95.00
2018-11-06T19:29:13.182Z,95.60
2018-11-06T19:33:51.438Z,96.90
2018-11-06T19:44:15.129Z,97.50
2018-11-06T19:46:45.333Z,99.80
2018-11-06T19:49:14.793Z,99.90
2018-11-06T19:51:45.588Z,99.70
2018-11-06T19:54:25.339Z,99.50
2018-11-06T20:09:20.375Z,99.30
2018-11-06T20:12:51.716Z,99.10
2018-11-06T20:21:43.843Z,99.10
2018-11-06T20:25:23.584Z,99.10
2018-11-06T20:34:08.921Z,99.30
2018-11-06T20:36:38.429Z,99.30
2018-11-06T20:39:10.155Z,99.90
2018-11-06T20:41:45.841Z,99.90
2018-11-06T20:44:33.980Z,99.90
2018-11-06T20:47:18.141Z,99.90
2018-11-06T20:49:54.151Z,99.90
2018-11-06T20:52:22.933Z,99.90
2018-11-06T20:54:51.760Z,99.90
2018-11-06T20:57:20.366Z,99.90
2018-11-06T20:59:51.004Z,99.90
2018-11-06T21:10:51.796Z,99.90
2018-11-06T21:13:22.709Z,99.90
2018-11-06T21:15:52.647Z,99.90
2018-11-06T21:18:21.693Z,99.90
2018-11-06T21:20:51.705Z,99.90
2018-11-06T21:23:43.305Z,99.90
2018-11-06T21:26:13.320Z,99.90
2018-11-06T21:28:42.701Z,99.90
2018-11-06T21:31:13.234Z,99.90
2018-11-06T21:33:45.014Z,99.90
2018-11-06T21:36:15.211Z,99.90
2018-11-06T21:38:45.558Z,99.90
2018-11-06T21:41:17.445Z,99.90
2018-11-06T21:43:46.741Z,99.90
2018-11-06T21:46:18.350Z,99.90
2018-11-06T22:05:39.471Z,99.90
2018-11-06T22:08:15.083Z,99.90
2018-11-06T22:10:44.831Z,99.90
2018-11-06T22:13:20.520Z,99.90
2018-11-06T22:21:41.327Z,99.90
2018-11-06T22:28:05.216Z,99.90
2018-11-06T22:30:37.669Z,99.90
2018-11-06T22:33:07.664Z,99.90
2018-11-06T22:35:40.848Z,99.90
2018-11-06T22:38:10.991Z,99.90
2018-11-06T22:43:51.815Z,99.90
2018-11-06T22:46:48.047Z,99.90
2018-11-06T23:22:33.033Z,99.90
2018-11-06T23:25:10.428Z,99.90
2018-11-06T23:27:57.496Z,99.90
2018-11-06T23:33:09.250Z,99.90
2018-11-06T23:35:41.357Z,99.90
2018-11-06T23:38:22.257Z,99.90
2018-11-06T23:40:52.889Z,99.90
2018-11-06T23:43:24.374Z,99.90
2018-11-06T23:46:02.580Z,99.90
2018-11-06T23:48:40.274Z,99.90
2018-11-06T23:51:13.333Z,99.90
2018-11-06T23:53:53.292Z,99.90
2018-11-06T23:56:27.166Z,99.90
